Time;durP1;ratioP1;P1;durP2;ratioP2;P2;SDS_P1;SDS_P2;PMS_P1;PMS_P2;Temp;Humidity;BMP_temperature;BMP_pressure;BME280_temperature;BME280_humidity;BME280_pressure;Samples;Min_cycle;Max_cycle;Signal;HPM_P1;HPM_P2
2021/11/15 00:01:15;;;;;;;27.85;18.98;;;;;;;7.73;79.49;99531.19;2620161;46;20033;-68
2021/11/15 00:03:48;;;;;;;23.05;16.75;;;;;;;7.76;79.44;99541.41;2618199;47;20572;-69
2021/11/15 00:06:17;;;;;;;23.58;18.27;;;;;;;7.74;79.68;99535.44;2618648;47;20057;-69
2021/11/15 00:08:47;;;;;;;24.95;18.92;;;;;;;7.71;79.51;99533.94;2619367;54;20034;-68
2021/11/15 00:11:17;;;;;;;24.73;18.50;;;;;;;7.71;79.82;99531.31;2619174;54;20035;-67
2021/11/15 00:13:46;;;;;;;24.65;18.67;;;;;;;7.70;79.55;99545.47;2618724;47;20054;-68
2021/11/15 00:16:18;;;;;;;24.73;19.27;;;;;;;7.70;79.78;99529.66;2618581;47;20034;-68
2021/11/15 00:18:48;;;;;;;23.90;18.90;;;;;;;7.73;79.78;99526.75;2618943;54;20041;-69
2021/11/15 00:21:18;;;;;;;23.77;18.80;;;;;;;7.73;79.67;99528.53;2618996;54;20908;-68
2021/11/15 00:23:48;;;;;;;23.30;18.15;;;;;;;7.70;79.75;99521.78;2619595;54;20029;-70
2021/11/15 00:26:17;;;;;;;28.27;20.05;;;;;;;7.74;79.87;99531.00;2621014;54;20034;-68
2021/11/15 00:28:47;;;;;;;25.70;18.95;;;;;;;7.76;79.23;99531.69;2621088;54;20049;-70
2021/11/15 00:31:22;;;;;;;25.33;18.75;;;;;;;7.73;79.31;99539.91;2620420;39;20521;-69
2021/11/15 00:33:53;;;;;;;23.60;18.63;;;;;;;7.73;79.32;99534.63;2620998;54;20050;-68
2021/11/15 00:36:26;;;;;;;26.77;19.75;;;;;;;7.69;79.51;99533.28;2621255;54;20050;-68
2021/11/15 00:38:56;;;;;;;28.58;19.42;;;;;;;7.72;79.32;99521.66;2620855;47;20030;-68
2021/11/15 00:41:25;;;;;;;25.98;20.25;;;;;;;7.71;79.61;99531.31;2620132;54;20041;-69
2021/11/15 00:43:55;;;;;;;27.83;20.88;;;;;;;7.69;79.22;99522.75;2618815;54;20061;-69
2021/11/15 00:46:28;;;;;;;29.08;21.10;;;;;;;7.68;79.12;99521.13;2619218;54;20035;-69
2021/11/15 00:48:58;;;;;;;27.05;19.85;;;;;;;7.68;79.19;99518.50;2618916;54;20061;-69
2021/11/15 00:51:29;;;;;;;25.42;17.90;;;;;;;7.65;79.25;99527.50;2618863;54;20683;-69
2021/11/15 00:54:00;;;;;;;27.98;20.40;;;;;;;7.65;79.36;99526.69;2619548;54;20125;-69
2021/11/15 00:56:30;;;;;;;28.95;21.55;;;;;;;7.64;79.81;99525.06;2618606;54;20030;-68
2021/11/15 00:59:00;;;;;;;26.70;19.60;;;;;;;7.68;79.24;99532.47;2618853;54;20045;-69
2021/11/15 01:01:32;;;;;;;28.10;20.27;;;;;;;7.67;79.59;99522.94;2618934;54;20083;-69
2021/11/15 01:04:02;;;;;;;29.08;20.83;;;;;;;7.67;79.74;99528.19;2620781;54;20086;-70
2021/11/15 01:06:32;;;;;;;28.52;20.98;;;;;;;7.68;79.26;99523.75;2622908;54;20034;-70
2021/11/15 01:09:02;;;;;;;33.25;21.85;;;;;;;7.68;79.40;99529.84;2623765;39;20478;-67
2021/11/15 01:11:32;;;;;;;27.77;21.00;;;;;;;7.69;79.32;99528.84;2619947;54;20038;-68
2021/11/15 01:14:02;;;;;;;30.10;21.75;;;;;;;7.65;79.30;99529.31;2619094;39;20442;-67
2021/11/15 01:16:34;;;;;;;30.33;22.45;;;;;;;7.67;79.48;99533.47;2618412;39;20457;-67
2021/11/15 01:19:04;;;;;;;26.90;20.15;;;;;;;7.65;79.63;99530.16;2618182;54;20055;-67
2021/11/15 01:21:34;;;;;;;26.67;20.50;;;;;;;7.69;79.13;99533.28;2618149;39;20714;-68
2021/11/15 01:24:04;;;;;;;28.25;22.38;;;;;;;7.66;79.68;99525.69;2618632;54;20019;-68
2021/11/15 01:26:34;;;;;;;29.23;21.27;;;;;;;7.67;79.25;99527.34;2618191;54;20069;-68
2021/11/15 01:29:03;;;;;;;27.88;20.92;;;;;;;7.68;79.05;99526.38;2618610;54;20022;-68
2021/11/15 01:31:38;;;;;;;31.10;22.65;;;;;;;7.69;79.18;99520.13;2617911;39;20426;-68
2021/11/15 01:34:08;;;;;;;28.45;22.02;;;;;;;7.72;79.55;99525.09;2620292;54;20023;-69
2021/11/15 01:36:37;;;;;;;30.25;21.33;;;;;;;7.73;78.80;99516.22;2624589;54;20030;-68
2021/11/15 01:39:08;;;;;;;28.25;21.45;;;;;;;7.72;79.17;99527.72;2620881;39;20430;-68
2021/11/15 01:41:39;;;;;;;32.30;23.40;;;;;;;7.74;78.90;99528.38;2618757;39;20453;-67
2021/11/15 01:44:08;;;;;;;32.35;23.52;;;;;;;7.70;78.82;99521.78;2618682;54;20030;-68
2021/11/15 01:46:40;;;;;;;31.48;22.58;;;;;;;7.73;79.11;99534.63;2618428;54;20066;-67
2021/11/15 01:49:10;;;;;;;31.42;22.98;;;;;;;7.72;78.47;99521.66;2617876;47;20039;-68
2021/11/15 01:51:40;;;;;;;33.50;23.63;;;;;;;7.72;79.22;99530.34;2618100;54;20030;-68
2021/11/15 01:54:10;;;;;;;33.13;23.77;;;;;;;7.75;78.53;99526.56;2617539;54;20027;-68
2021/11/15 01:56:40;;;;;;;30.20;22.75;;;;;;;7.74;78.42;99519.66;2617983;47;20046;-68
2021/11/15 01:59:10;;;;;;;31.38;22.60;;;;;;;7.74;78.61;99517.84;2620682;54;20031;-68
2021/11/15 02:01:42;;;;;;;30.50;22.02;;;;;;;7.75;78.53;99522.13;2620672;54;20045;-68
2021/11/15 02:04:12;;;;;;;30.35;23.40;;;;;;;7.72;78.66;99524.28;2621198;39;20425;-68
2021/11/15 02:06:42;;;;;;;32.72;23.63;;;;;;;7.72;78.32;99522.47;2620515;54;20045;-68
2021/11/15 02:09:12;;;;;;;33.58;23.77;;;;;;;7.74;78.15;99524.94;2620416;54;20041;-68
2021/11/15 02:11:42;;;;;;;34.38;24.05;;;;;;;7.72;78.15;99521.66;2621266;54;20045;-68
2021/11/15 02:14:11;;;;;;;32.42;23.23;;;;;;;7.72;78.83;99516.38;2621528;54;20794;-68
2021/11/15 02:16:44;;;;;;;33.50;23.77;;;;;;;7.70;78.12;99509.44;2619817;54;20034;-66
2021/11/15 02:19:13;;;;;;;31.52;24.05;;;;;;;7.68;78.76;99516.69;2623726;47;20550;-66
2021/11/15 02:21:46;;;;;;;32.75;23.13;;;;;;;7.69;78.80;99513.06;2624466;54;20026;-66
2021/11/15 02:24:17;;;;;;;31.55;23.58;;;;;;;7.68;78.42;99505.34;2624316;54;20018;-65
2021/11/15 02:26:46;;;;;;;32.00;24.58;;;;;;;7.64;78.59;99504.00;2624193;54;20042;-67
2021/11/15 02:29:16;;;;;;;32.38;23.90;;;;;;;7.62;78.51;99506.75;2623572;54;20042;-67
2021/11/15 02:31:46;;;;;;;30.70;22.90;;;;;;;7.63;78.26;99515.47;2623854;54;20031;-65
2021/11/15 02:34:15;;;;;;;29.02;20.48;;;;;;;7.65;78.76;99518.78;2624462;54;20038;-65
2021/11/15 02:36:48;;;;;;;33.97;23.77;;;;;;;7.63;78.72;99523.38;2623820;54;20115;-66
2021/11/15 02:39:18;;;;;;;31.88;23.58;;;;;;;7.60;79.06;99524.53;2624760;54;20103;-66
2021/11/15 02:41:47;;;;;;;29.20;22.35;;;;;;;7.59;79.01;99520.25;2624054;47;20038;-65
2021/11/15 02:44:18;;;;;;;27.05;21.38;;;;;;;7.65;78.93;99524.06;2624045;54;20086;-65
2021/11/15 02:46:48;;;;;;;26.58;21.33;;;;;;;7.67;79.11;99522.94;2623416;47;20038;-66
2021/11/15 02:49:17;;;;;;;29.30;22.08;;;;;;;7.67;78.96;99514.19;2624421;54;20031;-66
2021/11/15 02:51:50;;;;;;;27.45;21.42;;;;;;;7.67;79.02;99525.56;2624599;54;20045;-69
2021/11/15 02:54:21;;;;;;;29.30;22.38;;;;;;;7.72;78.73;99516.38;2624271;47;20094;-65
2021/11/15 02:56:51;;;;;;;30.27;22.40;;;;;;;7.71;78.40;99518.16;2624202;54;20041;-67
2021/11/15 02:59:21;;;;;;;28.20;21.00;;;;;;;7.69;78.59;99517.50;2624365;39;20435;-66
2021/11/15 03:01:51;;;;;;;28.10;21.23;;;;;;;7.73;78.67;99512.75;2624110;54;20041;-66
2021/11/15 03:04:21;;;;;;;29.60;20.52;;;;;;;7.73;78.18;99516.22;2624413;39;20447;-66
2021/11/15 03:06:54;;;;;;;26.65;19.02;;;;;;;7.65;78.33;99506.47;2623743;54;20037;-65
2021/11/15 03:09:23;;;;;;;27.70;21.55;;;;;;;7.65;78.76;99508.28;2624114;47;20038;-66
2021/11/15 03:11:53;;;;;;;29.50;21.70;;;;;;;7.68;78.72;99508.78;2623891;47;20030;-66
2021/11/15 03:14:23;;;;;;;28.33;20.35;;;;;;;7.67;78.68;99507.16;2624740;54;20033;-65
2021/11/15 03:16:53;;;;;;;30.70;21.80;;;;;;;7.68;78.30;99500.06;2624660;54;20030;-65
2021/11/15 03:19:23;;;;;;;25.45;19.23;;;;;;;7.63;78.43;99504.97;2624340;39;20434;-66
2021/11/15 03:21:55;;;;;;;27.30;19.60;;;;;;;7.64;78.41;99499.56;2622873;54;20045;-66
2021/11/15 03:24:25;;;;;;;27.73;20.58;;;;;;;7.62;78.22;99493.59;2622889;39;20419;-67
2021/11/15 03:26:54;;;;;;;28.30;19.67;;;;;;;7.64;78.33;99494.28;2624249;47;20035;-65
2021/11/15 03:29:24;;;;;;;32.75;21.75;;;;;;;7.62;78.85;99498.06;2625219;54;20094;-66
2021/11/15 03:31:53;;;;;;;28.38;20.05;;;;;;;7.62;79.01;99498.88;2624818;39;20434;-66
2021/11/15 03:34:24;;;;;;;31.17;20.30;;;;;;;7.56;78.34;99491.63;2625160;54;20026;-66
2021/11/15 03:36:57;;;;;;;31.63;21.02;;;;;;;7.56;79.02;99486.34;2625796;54;20033;-66
2021/11/15 03:39:26;;;;;;;30.58;20.50;;;;;;;7.60;78.99;99492.13;2624984;54;20043;-65
2021/11/15 03:41:56;;;;;;;28.15;21.00;;;;;;;7.63;78.53;99494.44;2624975;54;20026;-65
2021/11/15 03:44:26;;;;;;;27.23;21.80;;;;;;;7.61;78.85;99494.59;2625107;54;20033;-65
2021/11/15 03:46:55;;;;;;;27.50;19.73;;;;;;;7.59;78.63;99493.94;2624764;54;20027;-66
2021/11/15 03:49:25;;;;;;;25.52;19.42;;;;;;;7.57;78.47;99492.44;2620917;54;20041;-65
2021/11/15 03:51:57;;;;;;;24.60;18.27;;;;;;;7.57;78.80;99497.69;2621268;54;20045;-66
2021/11/15 03:54:27;;;;;;;29.10;21.33;;;;;;;7.57;78.50;99492.44;2622724;54;20097;-66
2021/11/15 03:56:57;;;;;;;27.25;18.35;;;;;;;7.56;78.15;99496.88;2622235;54;20023;-66
2021/11/15 03:59:26;;;;;;;24.92;17.20;;;;;;;7.55;78.60;99500.50;2621790;54;20023;-66
2021/11/15 04:01:56;;;;;;;25.00;18.63;;;;;;;7.55;78.77;99500.50;2621202;47;20035;-66
2021/11/15 04:04:31;;;;;;;28.60;19.65;;;;;;;7.54;78.70;99498.00;2621949;54;20031;-66
2021/11/15 04:07:03;;;;;;;26.45;20.40;;;;;;;7.54;78.93;99495.38;2622524;54;20022;-66
2021/11/15 04:09:33;;;;;;;27.40;19.75;;;;;;;7.54;78.69;99496.19;2622284;54;20029;-66
2021/11/15 04:12:03;;;;;;;25.98;19.50;;;;;;;7.55;78.72;99495.25;2622206;47;20572;-67
2021/11/15 04:14:33;;;;;;;27.55;19.73;;;;;;;7.54;78.62;99490.13;2625272;39;20421;-66
2021/11/15 04:17:02;;;;;;;30.27;21.30;;;;;;;7.52;78.72;99500.81;2625166;54;20050;-66
2021/11/15 04:19:32;;;;;;;30.67;20.45;;;;;;;7.50;78.75;99494.84;2624851;47;20062;-66
2021/11/15 04:22:05;;;;;;;29.50;20.67;;;;;;;7.53;78.74;99494.56;2624612;54;20044;-66
2021/11/15 04:24:35;;;;;;;28.73;20.98;;;;;;;7.55;78.67;99489.13;2622259;54;20026;-66
2021/11/15 04:27:05;;;;;;;28.45;20.17;;;;;;;7.55;78.75;99483.88;2622209;54;20037;-66
2021/11/15 04:29:35;;;;;;;29.20;20.27;;;;;;;7.52;78.43;99489.47;2621549;54;20022;-66
2021/11/15 04:32:06;;;;;;;26.23;20.65;;;;;;;7.50;78.80;99486.97;2621328;54;20035;-66
2021/11/15 04:34:36;;;;;;;28.42;21.38;;;;;;;7.53;78.66;99489.28;2621538;54;20038;-66
2021/11/15 04:37:09;;;;;;;27.48;20.52;;;;;;;7.52;78.81;99489.47;2621333;54;20038;-65
2021/11/15 04:39:39;;;;;;;26.73;20.73;;;;;;;7.54;78.61;99490.13;2621895;54;20034;-66
2021/11/15 04:42:11;;;;;;;27.98;21.05;;;;;;;7.54;78.62;99487.47;2623574;47;20050;-66
2021/11/15 04:44:42;;;;;;;28.38;20.23;;;;;;;7.55;78.69;99489.97;2622849;54;20033;-66
2021/11/15 04:47:11;;;;;;;26.40;19.80;;;;;;;7.58;78.96;99489.63;2622489;54;20030;-66
2021/11/15 04:49:41;;;;;;;26.02;19.75;;;;;;;7.52;78.55;99490.28;2622771;54;20030;-67
2021/11/15 04:52:13;;;;;;;28.35;20.88;;;;;;;7.48;78.91;99482.84;2624747;54;20054;-67
2021/11/15 04:54:43;;;;;;;27.95;19.75;;;;;;;7.51;78.83;99490.41;2624379;54;20042;-66
2021/11/15 04:57:13;;;;;;;26.75;19.50;;;;;;;7.52;78.59;99489.47;2624925;54;20050;-66
2021/11/15 04:59:42;;;;;;;29.08;19.77;;;;;;;7.51;78.22;99491.28;2623592;47;20037;-69
2021/11/15 05:02:13;;;;;;;25.88;18.90;;;;;;;7.52;78.43;99486.84;2623284;47;20023;-67
2021/11/15 05:04:43;;;;;;;27.63;17.95;;;;;;;7.50;78.77;99491.41;2623748;54;20030;-66
2021/11/15 05:07:15;;;;;;;26.45;19.35;;;;;;;7.49;78.40;99485.31;2622169;54;20038;-66
2021/11/15 05:09:45;;;;;;;30.52;21.83;;;;;;;7.50;78.67;99486.16;2622115;54;20046;-65
2021/11/15 05:12:15;;;;;;;28.25;18.67;;;;;;;7.47;78.73;99481.19;2621793;39;20402;-65
2021/11/15 05:14:45;;;;;;;41.03;27.10;;;;;;;7.47;78.90;99486.44;2621346;54;20077;-67
2021/11/15 05:17:14;;;;;;;26.67;18.45;;;;;;;7.48;78.49;99477.59;2622130;54;20034;-65
2021/11/15 05:19:45;;;;;;;27.70;20.30;;;;;;;7.49;78.39;99481.88;2620888;54;20042;-66
2021/11/15 05:22:18;;;;;;;29.58;20.15;;;;;;;7.43;78.28;99481.53;2619724;54;20066;-65
2021/11/15 05:24:48;;;;;;;28.73;20.02;;;;;;;7.43;78.67;99478.06;2619381;54;20030;-65
2021/11/15 05:27:17;;;;;;;26.27;20.05;;;;;;;7.43;79.15;99480.69;2620032;54;20033;-66
2021/11/15 05:29:47;;;;;;;29.40;19.98;;;;;;;7.46;78.71;99480.38;2620132;54;20035;-66
2021/11/15 05:32:17;;;;;;;29.98;20.75;;;;;;;7.45;78.65;99482.19;2621965;54;20030;-66
2021/11/15 05:34:47;;;;;;;26.92;19.20;;;;;;;7.45;78.77;99479.53;2622743;54;20027;-66
2021/11/15 05:37:20;;;;;;;29.25;20.35;;;;;;;7.44;78.53;99474.44;2623773;54;20038;-66
2021/11/15 05:39:49;;;;;;;30.40;21.10;;;;;;;7.40;79.04;99484.47;2624589;54;20041;-67
2021/11/15 05:42:20;;;;;;;27.02;20.58;;;;;;;7.42;79.08;99481.66;2623750;54;20026;-66
2021/11/15 05:44:50;;;;;;;27.15;20.00;;;;;;;7.38;79.11;99478.50;2623892;54;20034;-67
2021/11/15 05:47:19;;;;;;;30.13;20.08;;;;;;;7.42;78.89;99479.03;2623887;54;20037;-66
2021/11/15 05:49:49;;;;;;;32.75;21.08;;;;;;;7.43;78.75;99468.38;2623716;54;20034;-68
2021/11/15 05:52:23;;;;;;;28.20;21.05;;;;;;;7.41;79.01;99475.56;2621925;47;20030;-66
2021/11/15 05:54:54;;;;;;;28.40;21.35;;;;;;;7.45;78.87;99476.09;2622057;54;20038;-66
2021/11/15 05:57:24;;;;;;;28.98;20.23;;;;;;;7.43;78.98;99473.63;2622271;54;20142;-66
2021/11/15 05:59:53;;;;;;;31.85;21.35;;;;;;;7.41;79.05;99477.38;2621852;54;20041;-65
2021/11/15 06:02:23;;;;;;;28.77;20.10;;;;;;;7.43;78.87;99480.69;2621940;54;20042;-65
2021/11/15 06:04:54;;;;;;;29.17;20.92;;;;;;;7.47;78.99;99483.81;2622822;31;20547;-65
2021/11/15 06:07:26;;;;;;;29.45;20.63;;;;;;;7.41;79.25;99478.22;2624543;39;20437;-66
2021/11/15 06:09:56;;;;;;;27.25;19.23;;;;;;;7.45;79.12;99478.72;2626684;39;20441;-69
2021/11/15 06:12:26;;;;;;;30.13;20.77;;;;;;;7.48;78.87;99482.84;2623957;54;20042;-66
2021/11/15 06:14:55;;;;;;;30.20;20.17;;;;;;;7.52;79.11;99479.75;2624455;39;20434;-66
2021/11/15 06:17:25;;;;;;;30.00;20.85;;;;;;;7.51;78.61;99493.06;2625730;39;20398;-66
2021/11/15 06:19:55;;;;;;;30.05;21.13;;;;;;;7.49;78.92;99490.59;2624664;54;20038;-66
2021/11/15 06:22:27;;;;;;;28.15;19.35;;;;;;;7.50;78.87;99494.03;2624688;54;20039;-66
2021/11/15 06:24:56;;;;;;;30.48;20.33;;;;;;;7.49;78.67;99500.28;2624659;54;20033;-66
2021/11/15 06:27:26;;;;;;;32.15;21.40;;;;;;;7.52;78.60;99508.69;2624139;47;20026;-67
2021/11/15 06:29:56;;;;;;;30.92;21.65;;;;;;;7.52;78.76;99510.50;2624442;54;20053;-67
2021/11/15 06:32:25;;;;;;;30.42;20.23;;;;;;;7.52;78.86;99510.50;2625153;39;20430;-67
2021/11/15 06:34:57;;;;;;;31.33;19.65;;;;;;;7.50;78.66;99505.38;2623856;54;20027;-67
2021/11/15 06:37:30;;;;;;;25.83;19.35;;;;;;;7.54;78.63;99513.78;2624695;54;20045;-67
2021/11/15 06:39:59;;;;;;;29.80;19.60;;;;;;;7.54;78.77;99517.25;2624363;54;20033;-67
2021/11/15 06:42:29;;;;;;;28.73;20.65;;;;;;;7.57;78.80;99531.91;2623882;54;20131;-68
2021/11/15 06:44:59;;;;;;;28.88;20.40;;;;;;;7.54;78.79;99517.25;2623912;54;20038;-67
2021/11/15 06:47:33;;;;;;;32.50;21.38;;;;;;;7.57;78.49;99524.84;2624226;54;20041;-67
2021/11/15 06:50:03;;;;;;;27.98;19.33;;;;;;;7.52;78.58;99521.03;2624578;54;20031;-67
2021/11/15 06:52:36;;;;;;;28.15;19.67;;;;;;;7.52;78.65;99526.28;2623589;54;20045;-67
2021/11/15 06:55:08;;;;;;;31.83;20.27;;;;;;;7.54;78.42;99517.25;2623508;54;20042;-67
2021/11/15 06:57:40;;;;;;;32.03;21.58;;;;;;;7.52;78.26;99521.84;2623144;54;20035;-67
2021/11/15 07:00:16;;;;;;;29.20;20.60;;;;;;;7.52;78.57;99518.41;2623321;54;20045;-68
2021/11/15 07:02:50;;;;;;;27.85;18.95;;;;;;;7.49;78.51;99516.91;2623679;54;20038;-67
2021/11/15 08:07:50;;;;;;;25.45;16.63;;;;;;;7.64;77.16;99530.31;2603792;46;20155;-66
2021/11/15 08:10:21;;;;;;;26.88;19.30;;;;;;;7.68;77.03;99542.19;2621525;54;20045;-67
2021/11/15 08:12:54;;;;;;;25.83;18.95;;;;;;;7.74;76.86;99545.97;2621219;47;20041;-67
2021/11/15 08:15:25;;;;;;;26.70;18.38;;;;;;;7.76;76.79;99544.03;2622310;54;20562;-66
2021/11/15 08:17:57;;;;;;;24.65;18.58;;;;;;;7.79;76.23;99541.88;2621853;54;20030;-68
2021/11/15 08:20:29;;;;;;;24.48;17.73;;;;;;;7.80;76.38;99548.81;2621742;54;20027;-66
2021/11/15 08:23:04;;;;;;;25.42;17.20;;;;;;;7.83;76.37;99553.75;2619297;54;20031;-69
2021/11/15 08:26:04;;;;;;;22.70;17.08;;;;;;;7.84;75.81;99546.72;2618024;54;20564;-70
2021/11/15 08:28:35;;;;;;;26.48;19.45;;;;;;;7.84;76.12;99537.00;2618516;47;20042;-70
2021/11/15 08:31:08;;;;;;;26.85;19.33;;;;;;;7.85;75.66;99536.00;2619849;54;20082;-70
2021/11/15 08:33:38;;;;;;;22.40;16.38;;;;;;;7.82;75.51;99533.69;2619268;54;20026;-70
2021/11/15 08:36:09;;;;;;;24.88;18.13;;;;;;;7.84;75.80;99534.38;2619653;54;20019;-70
2021/11/15 08:38:48;;;;;;;22.70;17.73;;;;;;;7.92;75.71;99536.22;2619661;39;20422;-70
2021/11/15 08:41:22;;;;;;;24.20;18.33;;;;;;;7.92;75.58;99534.41;2619497;54;20038;-70
2021/11/15 08:43:54;;;;;;;23.75;17.75;;;;;;;7.94;75.74;99531.59;2618989;54;20573;-70
2021/11/15 08:46:26;;;;;;;24.63;18.33;;;;;;;7.99;75.69;99534.59;2618190;47;20034;-70
2021/11/15 08:48:56;;;;;;;27.10;20.10;;;;;;;8.03;75.50;99535.91;2619195;39;20530;-67
2021/11/15 08:51:26;;;;;;;26.85;18.77;;;;;;;8.05;75.21;99538.41;2618759;54;20037;-67
2021/11/15 08:54:01;;;;;;;24.58;17.90;;;;;;;8.06;74.90;99534.78;2618315;46;20200;-66
2021/11/15 08:56:31;;;;;;;22.98;17.63;;;;;;;8.02;75.12;99526.38;2617902;54;20035;-68
2021/11/15 08:59:21;;;;;;;26.10;18.23;;;;;;;8.01;74.95;99527.38;2622513;54;20057;-71
2021/11/15 09:01:51;;;;;;;23.52;16.98;;;;;;;8.03;74.85;99530.66;2621032;54;20082;-71
2021/11/15 09:04:21;;;;;;;19.77;15.32;;;;;;;7.98;74.74;99527.69;2619239;54;20040;-70
2021/11/15 09:06:52;;;;;;;25.05;16.00;;;;;;;7.99;75.19;99528.50;2618990;47;20925;-71
2021/11/15 09:09:28;;;;;;;23.27;16.38;;;;;;;8.01;75.12;99523.91;2619250;54;20042;-70
2021/11/15 09:12:02;;;;;;;23.25;17.60;;;;;;;8.02;75.34;99526.38;2618361;54;20047;-69
2021/11/15 09:14:31;;;;;;;22.70;16.52;;;;;;;8.05;74.98;99523.44;2618941;54;20042;-69
2021/11/15 09:17:01;;;;;;;23.42;15.43;;;;;;;8.03;74.61;99520.13;2618811;54;20034;-69
2021/11/15 09:19:31;;;;;;;22.55;16.25;;;;;;;8.01;74.79;99518.66;2618097;47;20026;-70
2021/11/15 09:22:01;;;;;;;30.45;20.50;;;;;;;8.07;75.31;99525.91;2618283;54;20061;-70
2021/11/15 09:24:34;;;;;;;24.38;16.00;;;;;;;8.12;74.78;99521.81;2618247;54;20027;-71
2021/11/15 09:27:08;;;;;;;24.83;17.38;;;;;;;8.08;74.79;99524.91;2618295;39;20458;-70
2021/11/15 09:29:38;;;;;;;23.15;16.85;;;;;;;8.06;75.49;99524.25;2618541;54;20082;-71
2021/11/15 09:32:09;;;;;;;29.45;21.23;;;;;;;8.11;75.33;99527.22;2618326;54;20042;-71
2021/11/15 09:34:40;;;;;;;25.15;16.80;;;;;;;8.14;74.85;99534.81;2618536;54;20039;-70
2021/11/15 09:37:10;;;;;;;25.02;17.83;;;;;;;8.14;75.03;99532.19;2618562;54;20035;-70
2021/11/15 09:39:44;;;;;;;24.35;17.25;;;;;;;8.12;74.87;99535.00;2618258;54;20042;-70
2021/11/15 09:42:16;;;;;;;22.77;17.75;;;;;;;8.10;75.01;99546.66;2618181;54;20106;-69
2021/11/15 09:44:46;;;;;;;24.88;17.17;;;;;;;8.14;75.23;99542.72;2618145;54;20033;-70
2021/11/15 09:47:16;;;;;;;23.50;16.92;;;;;;;8.18;74.84;99542.25;2618479;54;20030;-70
2021/11/15 09:49:46;;;;;;;22.40;15.93;;;;;;;8.19;74.88;99545.69;2618275;54;20074;-70
2021/11/15 09:52:17;;;;;;;24.02;16.55;;;;;;;8.16;74.90;99546.00;2618494;54;20038;-70
2021/11/15 09:54:50;;;;;;;24.95;16.58;;;;;;;8.21;74.68;99546.38;2618617;54;20085;-70
2021/11/15 09:57:38;;;;;;;18.02;14.18;;;;;;;8.25;73.68;99544.25;2617773;46;20034;-70
2021/11/15 10:00:11;;;;;;;19.42;15.07;;;;;;;8.20;74.25;99552.59;2618583;54;20042;-70
2021/11/15 10:02:44;;;;;;;24.25;17.05;;;;;;;8.23;74.13;99559.38;2618441;54;20561;-69
2021/11/15 10:05:13;;;;;;;23.13;15.90;;;;;;;8.23;74.65;99554.09;2618312;54;20034;-70
2021/11/15 10:07:46;;;;;;;22.92;15.77;;;;;;;8.25;73.78;99560.88;2618231;54;20034;-70
2021/11/15 10:10:38;;;;;;;21.05;15.80;;;;;;;8.22;74.05;99561.19;2618331;54;20034;-70
2021/11/15 10:13:20;;;;;;;25.75;17.23;;;;;;;8.18;74.40;99567.75;2617534;54;20031;-70
2021/11/15 10:16:06;;;;;;;24.20;16.98;;;;;;;8.17;74.57;99568.75;2618873;39;20456;-71
2021/11/15 10:18:47;;;;;;;23.85;17.67;;;;;;;8.15;74.68;99568.88;2618862;54;20042;-70
2021/11/15 10:21:20;;;;;;;23.90;16.25;;;;;;;8.14;74.32;99563.78;2618594;54;20037;-70
2021/11/15 10:23:53;;;;;;;23.42;16.48;;;;;;;8.15;74.76;99563.63;2619059;54;20034;-70
2021/11/15 10:26:31;;;;;;;26.73;16.95;;;;;;;8.22;74.49;99563.81;2618601;54;20026;-69
2021/11/15 10:29:08;;;;;;;24.38;16.80;;;;;;;8.21;74.29;99558.72;2618639;54;20578;-70
2021/11/15 10:31:45;;;;;;;22.35;16.73;;;;;;;8.14;74.33;99556.72;2618840;54;20042;-69
2021/11/15 10:34:17;;;;;;;24.63;17.13;;;;;;;8.13;74.56;99551.63;2621045;54;20030;-70
2021/11/15 10:37:07;;;;;;;20.85;15.57;;;;;;;8.20;73.53;99552.59;2621779;54;20034;-70
2021/11/15 10:39:42;;;;;;;25.15;16.10;;;;;;;8.13;74.22;99552.44;2621066;54;20035;-71
2021/11/15 10:42:18;;;;;;;24.60;16.58;;;;;;;8.08;73.99;99545.97;2621073;54;20048;-71
2021/11/15 10:44:54;;;;;;;21.38;15.15;;;;;;;8.09;74.41;99537.94;2621611;54;20035;-68
2021/11/15 10:47:31;;;;;;;24.42;16.75;;;;;;;8.14;74.40;99527.75;2620407;54;20038;-70
2021/11/15 10:50:10;;;;;;;23.38;15.80;;;;;;;8.10;74.48;99525.59;2618824;54;20038;-69
2021/11/15 10:52:42;;;;;;;19.40;14.52;;;;;;;8.07;74.51;99516.19;2619606;39;20421;-68
2021/11/15 10:55:15;;;;;;;24.95;17.70;;;;;;;8.06;74.83;99513.72;2618281;54;20060;-68
2021/11/15 10:57:49;;;;;;;23.95;16.48;;;;;;;8.11;74.74;99514.06;2619974;54;20840;-68
2021/11/15 11:00:30;;;;;;;24.50;16.35;;;;;;;8.10;74.64;99510.59;2617744;54;20030;-67
2021/11/15 11:03:10;;;;;;;21.25;15.98;;;;;;;8.09;75.02;99506.34;2618093;54;20115;-69
2021/11/15 11:05:42;;;;;;;24.33;17.33;;;;;;;8.08;75.04;99506.47;2618316;54;20054;-68
2021/11/15 11:08:16;;;;;;;22.67;17.23;;;;;;;8.10;74.23;99513.25;2618015;54;20049;-68
2021/11/15 11:11:02;;;;;;;20.85;15.77;;;;;;;8.10;74.26;99512.41;2618343;54;20027;-68
2021/11/15 11:13:52;;;;;;;24.23;16.58;;;;;;;8.10;74.12;99515.06;2617715;54;20030;-68
2021/11/15 11:16:23;;;;;;;21.60;16.20;;;;;;;8.10;74.36;99513.25;2618441;39;20437;-67
2021/11/15 11:19:02;;;;;;;23.80;16.70;;;;;;;8.13;74.36;99517.38;2618018;39;20539;-68
2021/11/15 11:21:56;;;;;;;23.40;16.77;;;;;;;8.14;74.12;99511.94;2617660;47;20030;-69
2021/11/15 11:24:42;;;;;;;22.67;15.80;;;;;;;8.15;74.58;99510.13;2617492;47;20618;-68
2021/11/15 11:27:14;;;;;;;23.88;16.23;;;;;;;8.11;74.48;99500.91;2617853;51;20038;-68
2021/11/15 11:29:50;;;;;;;23.05;15.40;;;;;;;8.11;74.77;99506.16;2618102;47;20034;-69
2021/11/15 11:32:24;;;;;;;21.50;15.77;;;;;;;8.06;74.84;99497.91;2617435;47;20038;-69
2021/11/15 11:34:56;;;;;;;21.90;15.90;;;;;;;8.05;74.36;99501.53;2618389;54;20562;-67
2021/11/15 11:37:29;;;;;;;23.75;17.05;;;;;;;8.05;74.54;99499.72;2618199;54;20041;-68
2021/11/15 11:40:01;;;;;;;26.70;17.55;;;;;;;8.06;74.56;99503.19;2618846;54;20114;-68
2021/11/15 11:42:32;;;;;;;22.77;17.55;;;;;;;8.03;74.83;99493.78;2620074;54;20542;-70
2021/11/15 11:45:07;;;;;;;25.98;18.02;;;;;;;7.99;74.96;99496.91;2623984;54;20038;-68
2021/11/15 11:47:40;;;;;;;22.98;16.63;;;;;;;8.01;75.14;99482.59;2619053;47;20022;-68
2021/11/15 11:50:12;;;;;;;25.52;17.55;;;;;;;8.04;75.14;99484.06;2618492;54;20034;-69
2021/11/15 11:52:42;;;;;;;24.98;18.70;;;;;;;8.05;75.15;99473.41;2618070;47;20030;-69
2021/11/15 11:55:20;;;;;;;25.58;17.60;;;;;;;8.10;75.54;99473.75;2618877;54;20054;-68
2021/11/15 11:57:50;;;;;;;24.30;16.92;;;;;;;8.16;75.26;99473.13;2618245;47;20054;-68
2021/11/15 12:00:23;;;;;;;23.65;17.50;;;;;;;8.15;74.69;99473.25;2618525;47;20026;-68
2021/11/15 12:03:05;;;;;;;27.38;16.45;;;;;;;8.10;74.86;99470.28;2618561;47;20035;-68
2021/11/15 12:05:35;;;;;;;28.33;19.10;;;;;;;8.09;75.45;99481.81;2618625;54;20058;-68
2021/11/15 12:08:08;;;;;;;23.85;17.88;;;;;;;8.07;75.48;99478.50;2618243;47;20553;-69
2021/11/15 12:10:41;;;;;;;26.77;18.65;;;;;;;8.07;75.44;99478.50;2618320;47;20026;-69
2021/11/15 12:13:13;;;;;;;28.25;18.45;;;;;;;7.92;75.87;99476.50;2619244;54;20044;-70
2021/11/15 12:15:55;;;;;;;28.38;19.25;;;;;;;7.97;75.98;99481.28;2618786;54;20037;-69
2021/11/15 12:18:27;;;;;;;25.58;18.52;;;;;;;8.00;76.34;99480.13;2619491;54;20038;-70
2021/11/15 12:21:11;;;;;;;27.10;19.15;;;;;;;7.95;75.89;99476.16;2618967;47;20027;-69
2021/11/15 12:23:44;;;;;;;28.60;19.80;;;;;;;7.93;76.55;99467.59;2618646;54;20038;-69
2021/11/15 12:26:17;;;;;;;30.43;20.03;;;;;;;7.90;76.77;99467.09;2619518;39;20416;-69
2021/11/15 12:28:48;;;;;;;26.77;18.88;;;;;;;7.94;76.29;99473.69;2619041;54;20026;-70
2021/11/15 12:31:45;;;;;;;31.20;20.50;;;;;;;7.95;76.68;99462.16;2618614;39;20144;-70
2021/11/15 12:34:20;;;;;;;30.20;21.30;;;;;;;7.97;76.92;99462.03;2618677;47;20038;-70
2021/11/15 12:36:53;;;;;;;27.20;18.10;;;;;;;7.98;76.49;99468.94;2618453;54;20030;-70
2021/11/15 12:39:28;;;;;;;25.95;17.33;;;;;;;7.92;76.21;99473.84;2618119;54;20036;-70
2021/11/15 12:42:00;;;;;;;24.10;17.77;;;;;;;7.84;76.75;99465.94;2618631;54;20035;-70
2021/11/15 12:44:35;;;;;;;25.90;16.52;;;;;;;7.80;76.51;99458.50;2618679;54;20125;-70
2021/11/15 12:47:14;;;;;;;29.70;19.98;;;;;;;7.74;77.25;99464.41;2618714;39;20414;-70
2021/11/15 12:49:46;;;;;;;29.92;19.17;;;;;;;7.69;77.35;99465.69;2618891;54;20038;-70